Time;durP1;ratioP1;P1;durP2;ratioP2;P2;SDS_P1;SDS_P2;PMS_P1;PMS_P2;Temp;Humidity;BMP_temperature;BMP_pressure;BME280_temperature;BME280_humidity;BME280_pressure;Samples;Min_cycle;Max_cycle;Signal;HPM_P1;HPM_P2
2022/12/11 00:01:53;;;;;;;;;;;1.40;99.90;;;;;;5012181;28;20004;-79
2022/12/11 00:04:19;;;;;;;;;;;1.50;99.90;;;;;;5011421;28;19945;-78
2022/12/11 00:06:44;;;;;;;;;;;1.50;99.90;;;;;;5011724;28;20008;-79
2022/12/11 00:09:10;;;;;;;;;;;1.50;99.90;;;;;;5011346;28;19914;-78
2022/12/11 00:11:36;;;;;;;;;;;1.50;99.90;;;;;;5011672;28;19909;-78
2022/12/11 00:14:01;;;;;;;;;;;1.50;99.90;;;;;;5011442;28;19916;-82
2022/12/11 00:16:27;;;;;;;;;;;1.60;99.90;;;;;;5011070;28;19944;-78
2022/12/11 00:18:53;;;;;;;;;;;1.50;99.90;;;;;;5009982;28;20000;-78
2022/12/11 00:21:18;;;;;;;;;;;1.50;99.90;;;;;;5010639;28;20530;-78
2022/12/11 00:23:44;;;;;;;;;;;1.50;99.90;;;;;;5013670;28;19916;-78
2022/12/11 00:26:12;;;;;;;;;;;1.60;99.90;;;;;;5013321;28;20374;-78
2022/12/11 00:28:38;;;;;;;;;;;1.50;99.90;;;;;;5014982;28;19910;-79
2022/12/11 00:31:08;;;;;;;;;;;1.50;99.90;;;;;;5014406;28;20231;-79
2022/12/11 00:33:33;;;;;;;;;;;1.60;99.90;;;;;;5014891;28;20008;-78
2022/12/11 00:35:59;;;;;;;;;;;1.50;99.90;;;;;;5014128;28;19989;-81
2022/12/11 00:38:25;;;;;;;;;;;1.50;99.90;;;;;;5014878;28;19914;-78
2022/12/11 00:40:50;;;;;;;;;;;1.60;99.90;;;;;;5014542;28;20047;-78
2022/12/11 00:43:16;;;;;;;;;;;1.60;99.90;;;;;;5013799;28;19910;-79
2022/12/11 00:45:45;;;;;;;;;;;1.60;99.90;;;;;;5014359;28;20362;-78
2022/12/11 00:48:11;;;;;;;;;;;1.60;99.90;;;;;;5014446;28;19916;-80
2022/12/11 00:50:38;;;;;;;;;;;1.60;99.90;;;;;;5013032;28;19913;-79
2022/12/11 00:53:04;;;;;;;;;;;1.60;99.90;;;;;;5014349;28;19933;-79
2022/12/11 00:55:29;;;;;;;;;;;1.60;99.90;;;;;;5014352;28;19921;-79
2022/12/11 00:57:55;;;;;;;;;;;1.60;99.90;;;;;;5014222;28;19914;-79
2022/12/11 01:00:21;;;;;;;;;;;1.60;99.90;;;;;;5014196;28;20401;-79
2022/12/11 01:02:47;;;;;;;;;;;1.60;99.90;;;;;;5014905;28;19917;-78
2022/12/11 01:05:13;;;;;;;;;;;1.60;99.90;;;;;;5012787;28;19971;-80
2022/12/11 01:07:38;;;;;;;;;;;1.60;99.90;;;;;;5014033;28;20083;-79
2022/12/11 01:10:22;;;;;;;;;;;1.50;99.90;;;;;;5013169;28;19910;-80
2022/12/11 01:12:52;;;;;;;;;;;1.50;99.90;;;;;;5013981;28;19914;-79
2022/12/11 01:15:18;;;;;;;;;;;1.50;99.90;;;;;;5013137;28;19913;-79
2022/12/11 01:17:44;;;;;;;;;;;1.50;99.90;;;;;;5012402;28;19913;-80
2022/12/11 01:20:10;;;;;;;;;;;1.40;99.90;;;;;;5013118;28;20374;-80
2022/12/11 01:22:35;;;;;;;;;;;1.40;99.90;;;;;;5013471;28;20012;-82
2022/12/11 01:25:01;;;;;;;;;;;1.40;99.90;;;;;;5013385;28;19909;-85
2022/12/11 01:27:26;;;;;;;;;;;1.40;99.90;;;;;;5012990;28;19956;-82
2022/12/11 01:29:52;;;;;;;;;;;1.40;99.90;;;;;;5013984;28;20382;-84
2022/12/11 01:32:17;;;;;;;;;;;1.40;99.90;;;;;;5012866;28;20008;-82
2022/12/11 01:34:43;;;;;;;;;;;1.40;99.90;;;;;;5012681;28;19921;-82
2022/12/11 01:37:09;;;;;;;;;;;1.30;99.90;;;;;;5013176;28;20370;-82
2022/12/11 01:39:35;;;;;;;;;;;1.40;99.90;;;;;;5013601;28;20051;-82
2022/12/11 01:42:00;;;;;;;;;;;1.40;99.90;;;;;;5013602;28;19916;-84
2022/12/11 01:44:26;;;;;;;;;;;1.40;99.90;;;;;;5013413;28;19944;-83
2022/12/11 01:46:52;;;;;;;;;;;1.30;99.90;;;;;;5013620;28;20347;-83
2022/12/11 01:49:19;;;;;;;;;;;1.30;99.90;;;;;;5013682;28;20420;-83
2022/12/11 01:51:49;;;;;;;;;;;1.30;99.90;;;;;;5013799;28;19963;-83
2022/12/11 01:54:16;;;;;;;;;;;1.30;99.90;;;;;;5012102;28;20004;-84
2022/12/11 01:56:43;;;;;;;;;;;1.30;99.90;;;;;;5012831;28;20063;-85
2022/12/11 01:59:10;;;;;;;;;;;1.30;99.90;;;;;;5013278;28;19918;-85
2022/12/11 02:02:07;;;;;;;;;;;1.20;99.90;;;;;;5012931;28;19916;-87
2022/12/11 02:04:34;;;;;;;;;;;1.20;99.90;;;;;;4990597;28;19971;-89
2022/12/11 02:07:02;;;;;;;;;;;1.30;99.90;;;;;;5011951;28;19909;-85
2022/12/11 02:09:30;;;;;;;;;;;1.20;99.90;;;;;;5013095;28;19913;-85
2022/12/11 02:12:14;;;;;;;;;;;1.20;99.90;;;;;;5013172;28;19916;-85
2022/12/11 02:14:58;;;;;;;;;;;1.20;99.90;;;;;;5013277;28;19920;-84
2022/12/11 02:17:45;;;;;;;;;;;1.20;99.90;;;;;;5013251;28;20059;-83
2022/12/11 02:20:14;;;;;;;;;;;1.10;99.90;;;;;;5012666;28;19913;-84
2022/12/11 02:22:39;;;;;;;;;;;1.10;99.90;;;;;;5012545;28;19909;-83
2022/12/11 02:25:05;;;;;;;;;;;1.10;99.90;;;;;;5012571;28;20000;-83
2022/12/11 02:27:49;;;;;;;;;;;1.10;99.90;;;;;;5012045;28;19917;-83
2022/12/11 02:30:16;;;;;;;;;;;1.00;99.90;;;;;;5021105;28;19952;-84
2022/12/11 02:32:44;;;;;;;;;;;1.10;99.90;;;;;;5035318;28;19901;-83
2022/12/11 02:35:29;;;;;;;;;;;1.10;99.90;;;;;;5034601;28;19917;-86
2022/12/11 02:38:01;;;;;;;;;;;1.10;99.90;;;;;;5035958;28;19919;-84
2022/12/11 02:40:28;;;;;;;;;;;1.10;99.90;;;;;;5033361;28;19901;-84
2022/12/11 02:42:56;;;;;;;;;;;1.20;99.90;;;;;;5031409;28;19956;-83
2022/12/11 02:45:22;;;;;;;;;;;1.20;99.90;;;;;;5013534;28;19964;-83
2022/12/11 02:47:48;;;;;;;;;;;1.20;99.90;;;;;;5012391;28;19913;-82
2022/12/11 02:50:16;;;;;;;;;;;1.20;99.90;;;;;;5012801;28;19909;-83
2022/12/11 02:52:41;;;;;;;;;;;1.20;99.90;;;;;;5012906;28;19917;-82
2022/12/11 02:55:09;;;;;;;;;;;1.20;99.90;;;;;;5011219;28;19913;-84
2022/12/11 02:57:37;;;;;;;;;;;1.20;99.90;;;;;;5012765;28;19921;-83
2022/12/11 03:00:03;;;;;;;;;;;1.20;99.90;;;;;;5011276;28;19956;-83
2022/12/11 03:02:29;;;;;;;;;;;1.20;99.90;;;;;;5012814;28;19945;-82
2022/12/11 03:04:56;;;;;;;;;;;1.20;99.90;;;;;;5012814;28;20079;-83
2022/12/11 03:07:24;;;;;;;;;;;1.20;99.90;;;;;;5011638;28;20050;-82
2022/12/11 03:09:50;;;;;;;;;;;1.20;99.90;;;;;;5012512;28;19909;-83
2022/12/11 03:12:17;;;;;;;;;;;1.20;99.90;;;;;;5011852;28;20255;-83
2022/12/11 03:14:43;;;;;;;;;;;1.20;99.90;;;;;;5011915;28;20380;-83
2022/12/11 03:17:20;;;;;;;;;;;1.10;99.90;;;;;;5011359;28;20004;-84
2022/12/11 03:19:58;;;;;;;;;;;1.10;99.90;;;;;;5012516;28;19913;-82
2022/12/11 03:22:23;;;;;;;;;;;1.10;99.90;;;;;;5011824;28;19976;-83
2022/12/11 03:24:50;;;;;;;;;;;1.10;99.90;;;;;;5011969;28;20359;-83
2022/12/11 03:27:34;;;;;;;;;;;1.10;99.90;;;;;;5011510;28;20311;-83
2022/12/11 03:30:09;;;;;;;;;;;1.10;99.90;;;;;;5011747;28;19910;-82
2022/12/11 03:32:42;;;;;;;;;;;1.10;99.90;;;;;;5012409;28;19909;-83
2022/12/11 03:35:12;;;;;;;;;;;1.10;99.90;;;;;;5011282;28;20012;-86
2022/12/11 03:37:39;;;;;;;;;;;1.10;99.90;;;;;;5011994;28;19917;-81
2022/12/11 03:40:10;;;;;;;;;;;1.10;99.90;;;;;;5011411;28;20319;-82
2022/12/11 03:42:37;;;;;;;;;;;1.10;99.90;;;;;;5011619;28;20385;-82
2022/12/11 03:45:04;;;;;;;;;;;1.10;99.90;;;;;;5011938;28;19909;-81
2022/12/11 03:47:31;;;;;;;;;;;1.10;99.90;;;;;;5011223;28;19953;-82
2022/12/11 03:49:57;;;;;;;;;;;1.10;99.90;;;;;;5012039;28;19948;-82
2022/12/11 03:52:26;;;;;;;;;;;1.10;99.90;;;;;;5011316;28;19945;-81
2022/12/11 03:54:53;;;;;;;;;;;1.00;99.90;;;;;;5011785;28;19914;-81
2022/12/11 03:57:21;;;;;;;;;;;1.00;99.90;;;;;;5011199;28;20377;-81
2022/12/11 03:59:47;;;;;;;;;;;1.00;99.90;;;;;;5015095;28;20319;-81
2022/12/11 04:02:13;;;;;;;;;;;1.00;99.90;;;;;;5014679;28;20359;-81
2022/12/11 04:04:39;;;;;;;;;;;1.00;99.90;;;;;;5015532;28;19909;-81
2022/12/11 04:07:05;;;;;;;;;;;1.00;99.90;;;;;;5015481;28;19917;-81
2022/12/11 04:09:31;;;;;;;;;;;1.00;99.90;;;;;;5014800;28;20375;-80
2022/12/11 04:11:56;;;;;;;;;;;1.00;99.90;;;;;;5015459;28;19910;-80
2022/12/11 04:17:06;;;;;;;;;;;1.10;99.90;;;;;;5014795;28;20056;-81
2022/12/11 04:25:01;;;;;;;;;;;1.00;99.90;;;;;;5015046;28;20012;-81
2022/12/11 04:30:15;;;;;;;;;;;1.00;99.90;;;;;;5014141;28;19976;-84
2022/12/11 04:32:41;;;;;;;;;;;0.90;99.90;;;;;;5013332;28;19910;-79
2022/12/11 04:35:07;;;;;;;;;;;0.90;99.90;;;;;;5014403;28;19921;-79
2022/12/11 04:37:35;;;;;;;;;;;0.90;99.90;;;;;;5013466;28;20346;-80
2022/12/11 04:40:01;;;;;;;;;;;0.90;99.90;;;;;;5014372;28;20016;-79
2022/12/11 04:42:27;;;;;;;;;;;0.90;99.90;;;;;;5014330;28;19909;-79
2022/12/11 04:44:52;;;;;;;;;;;0.90;99.90;;;;;;5014309;28;19916;-79
2022/12/11 04:47:18;;;;;;;;;;;1.00;99.90;;;;;;5013879;28;19917;-80
2022/12/11 04:49:43;;;;;;;;;;;1.00;99.90;;;;;;5014523;28;20028;-80
2022/12/11 04:52:09;;;;;;;;;;;1.00;99.90;;;;;;5014128;28;20017;-80
2022/12/11 04:54:34;;;;;;;;;;;1.00;99.90;;;;;;5012702;28;19997;-80
2022/12/11 04:57:00;;;;;;;;;;;1.00;99.90;;;;;;5014111;28;19941;-79
2022/12/11 04:59:26;;;;;;;;;;;0.90;99.90;;;;;;5014189;28;20342;-79
2022/12/11 05:01:51;;;;;;;;;;;0.90;99.90;;;;;;5014609;28;19961;-79
2022/12/11 05:04:17;;;;;;;;;;;0.80;99.90;;;;;;5012230;28;20378;-79
2022/12/11 05:06:42;;;;;;;;;;;0.80;99.90;;;;;;5014235;28;20386;-79
2022/12/11 05:09:11;;;;;;;;;;;0.80;99.90;;;;;;5013922;28;19909;-78
2022/12/11 05:11:37;;;;;;;;;;;0.70;99.90;;;;;;5013082;28;19916;-78
2022/12/11 05:14:03;;;;;;;;;;;0.70;99.90;;;;;;5013919;28;20000;-78
2022/12/11 05:16:29;;;;;;;;;;;0.60;99.90;;;;;;5013446;28;19917;-78
2022/12/11 05:18:54;;;;;;;;;;;0.70;99.90;;;;;;5012687;28;19909;-79
2022/12/11 05:21:20;;;;;;;;;;;0.60;99.90;;;;;;5013427;28;20370;-80
2022/12/11 05:23:45;;;;;;;;;;;0.60;99.90;;;;;;5013929;28;20012;-79
2022/12/11 05:26:12;;;;;;;;;;;0.60;99.90;;;;;;5013905;28;19910;-79
2022/12/11 05:28:38;;;;;;;;;;;0.60;99.90;;;;;;5012370;28;19917;-80
2022/12/11 05:31:05;;;;;;;;;;;0.50;99.90;;;;;;5013466;28;19909;-78
2022/12/11 05:33:31;;;;;;;;;;;0.50;99.90;;;;;;5012058;28;19909;-78
2022/12/11 05:35:57;;;;;;;;;;;0.50;99.90;;;;;;5013928;28;20064;-79
2022/12/11 05:38:22;;;;;;;;;;;0.50;99.90;;;;;;5013543;28;20375;-79
2022/12/11 05:40:58;;;;;;;;;;;0.50;99.90;;;;;;5012497;28;19909;-79
2022/12/11 05:43:24;;;;;;;;;;;0.50;99.90;;;;;;5013212;28;19986;-79
2022/12/11 05:45:50;;;;;;;;;;;0.40;99.90;;;;;;5014144;28;20003;-79
2022/12/11 05:48:15;;;;;;;;;;;0.40;99.90;;;;;;5013527;28;20286;-83
2022/12/11 05:50:41;;;;;;;;;;;0.40;99.90;;;;;;5013336;28;19909;-79
2022/12/11 05:53:06;;;;;;;;;;;0.50;99.90;;;;;;5013654;28;20287;-79
2022/12/11 05:55:35;;;;;;;;;;;0.50;99.90;;;;;;5013018;28;19910;-79
2022/12/11 05:58:01;;;;;;;;;;;0.40;99.90;;;;;;5013196;28;19917;-78
2022/12/11 06:00:26;;;;;;;;;;;0.40;99.90;;;;;;5012999;28;20318;-79
2022/12/11 06:02:52;;;;;;;;;;;0.40;99.90;;;;;;5013318;28;19953;-78
2022/12/11 06:05:17;;;;;;;;;;;0.40;99.90;;;;;;5013202;28;19913;-82
2022/12/11 06:07:43;;;;;;;;;;;0.40;99.90;;;;;;5012784;28;19916;-79
2022/12/11 06:10:09;;;;;;;;;;;0.40;99.90;;;;;;5013219;28;20290;-79
2022/12/11 06:12:35;;;;;;;;;;;0.40;99.90;;;;;;5012712;28;20266;-80
2022/12/11 06:15:00;;;;;;;;;;;0.50;99.90;;;;;;5012740;28;19916;-78
2022/12/11 06:17:26;;;;;;;;;;;0.50;99.90;;;;;;5012275;28;19941;-78
2022/12/11 06:19:51;;;;;;;;;;;0.50;99.90;;;;;;5012828;28;19921;-79
2022/12/11 06:22:17;;;;;;;;;;;0.50;99.90;;;;;;5012456;28;19914;-80
2022/12/11 06:24:43;;;;;;;;;;;0.50;99.90;;;;;;5012023;28;19967;-79
2022/12/11 06:27:08;;;;;;;;;;;0.60;99.90;;;;;;5012656;28;19910;-78
2022/12/11 06:29:34;;;;;;;;;;;0.60;99.90;;;;;;5012106;28;19910;-79
2022/12/11 06:32:00;;;;;;;;;;;0.60;99.90;;;;;;5012376;28;19917;-79
2022/12/11 06:34:25;;;;;;;;;;;0.60;99.90;;;;;;5012027;28;19921;-78
2022/12/11 06:36:51;;;;;;;;;;;0.60;99.90;;;;;;5011098;28;19928;-77
2022/12/11 06:39:16;;;;;;;;;;;0.70;99.90;;;;;;5012849;28;19910;-79
2022/12/11 06:41:42;;;;;;;;;;;0.70;99.90;;;;;;5012013;28;19981;-79
2022/12/11 06:44:08;;;;;;;;;;;0.70;99.90;;;;;;5011831;28;20267;-78
2022/12/11 06:46:33;;;;;;;;;;;0.60;99.90;;;;;;5010502;28;19910;-78
2022/12/11 06:48:59;;;;;;;;;;;0.60;99.90;;;;;;5012124;28;20310;-78
2022/12/11 06:51:24;;;;;;;;;;;0.60;99.90;;;;;;5011831;28;19913;-79
2022/12/11 06:53:51;;;;;;;;;;;0.60;99.90;;;;;;5011735;28;19909;-78
2022/12/11 06:56:17;;;;;;;;;;;0.50;99.90;;;;;;5012098;28;19914;-78
2022/12/11 06:58:43;;;;;;;;;;;0.50;99.90;;;;;;5011615;28;19929;-78
2022/12/11 07:01:16;;;;;;;;;;;0.40;99.90;;;;;;5012089;28;19915;-78
2022/12/11 07:03:42;;;;;;;;;;;0.40;99.90;;;;;;5012291;28;19906;-78
2022/12/11 07:06:08;;;;;;;;;;;0.40;99.90;;;;;;5012681;28;19920;-77
2022/12/11 07:08:33;;;;;;;;;;;0.30;99.90;;;;;;5011063;28;19944;-77
2022/12/11 07:11:06;;;;;;;;;;;0.30;99.90;;;;;;5012897;28;20280;-78
2022/12/11 07:13:32;;;;;;;;;;;0.30;99.90;;;;;;5010407;28;20301;-78
2022/12/11 07:15:59;;;;;;;;;;;0.30;99.90;;;;;;5011881;28;19914;-78
2022/12/11 07:18:25;;;;;;;;;;;0.20;99.90;;;;;;5011344;28;20343;-78
2022/12/11 07:20:50;;;;;;;;;;;0.20;99.90;;;;;;5011917;28;20005;-77
2022/12/11 07:23:16;;;;;;;;;;;0.20;99.90;;;;;;5010237;28;19918;-78
2022/12/11 07:25:41;;;;;;;;;;;0.10;99.90;;;;;;5011528;28;19937;-78
2022/12/11 07:28:07;;;;;;;;;;;0.10;99.90;;;;;;5012062;28;20520;-78
2022/12/11 07:30:33;;;;;;;;;;;0.10;99.90;;;;;;5010921;28;20275;-77
2022/12/11 07:32:58;;;;;;;;;;;0.10;99.90;;;;;;5010832;28;19909;-77
2022/12/11 07:35:24;;;;;;;;;;;0.10;99.90;;;;;;5010740;28;20375;-80
2022/12/11 07:37:49;;;;;;;;;;;0.10;99.90;;;;;;5011546;28;20384;-77
2022/12/11 07:40:15;;;;;;;;;;;0.20;99.90;;;;;;5011893;28;19965;-77
2022/12/11 07:42:41;;;;;;;;;;;0.20;99.90;;;;;;5011334;28;20350;-78
2022/12/11 07:45:07;;;;;;;;;;;0.30;99.90;;;;;;5012042;28;20267;-77
2022/12/11 07:47:32;;;;;;;;;;;0.30;99.90;;;;;;5011515;28;19913;-77
2022/12/11 07:49:58;;;;;;;;;;;0.30;99.90;;;;;;5012273;28;19913;-78
2022/12/11 07:52:24;;;;;;;;;;;0.30;99.90;;;;;;5011835;28;19917;-81
2022/12/11 07:54:49;;;;;;;;;;;0.30;99.90;;;;;;5010396;28;19945;-77
2022/12/11 07:57:15;;;;;;;;;;;0.30;99.90;;;;;;5011669;28;19918;-77
2022/12/11 07:59:40;;;;;;;;;;;0.30;99.90;;;;;;5010939;28;20324;-77
2022/12/11 08:02:08;;;;;;;;;;;0.30;99.90;;;;;;5011444;28;19910;-78
2022/12/11 08:04:33;;;;;;;;;;;0.30;99.90;;;;;;5011329;28;19913;-78
2022/12/11 08:06:59;;;;;;;;;;;0.30;99.90;;;;;;5011659;28;20274;-77
2022/12/11 08:09:24;;;;;;;;;;;0.30;99.90;;;;;;5009742;28;19921;-80
2022/12/11 08:11:50;;;;;;;;;;;0.30;99.90;;;;;;5011490;28;19952;-77
2022/12/11 08:14:16;;;;;;;;;;;0.30;99.90;;;;;;5011712;28;20246;-78
2022/12/11 08:16:42;;;;;;;;;;;0.30;99.90;;;;;;5011156;28;19921;-77
2022/12/11 08:19:10;;;;;;;;;;;0.20;99.90;;;;;;5011781;28;19914;-78
2022/12/11 08:21:35;;;;;;;;;;;0.20;99.90;;;;;;5010736;28;19960;-77
2022/12/11 08:24:01;;;;;;;;;;;0.20;99.90;;;;;;5011478;28;19960;-78
2022/12/11 08:26:28;;;;;;;;;;;0.20;99.90;;;;;;5011080;28;19909;-81
2022/12/11 08:28:53;;;;;;;;;;;0.20;99.90;;;;;;5011265;28;19909;-79
2022/12/11 08:31:19;;;;;;;;;;;0.20;99.90;;;;;;5011174;28;19963;-79
2022/12/11 08:33:46;;;;;;;;;;;0.20;99.90;;;;;;5010521;28;20008;-79
2022/12/11 08:36:13;;;;;;;;;;;0.10;99.90;;;;;;5011003;28;19921;-79
2022/12/11 08:38:39;;;;;;;;;;;0.20;99.90;;;;;;5010339;28;19979;-79
2022/12/11 08:41:07;;;;;;;;;;;0.10;99.90;;;;;;5009378;28;19937;-79
2022/12/11 08:43:33;;;;;;;;;;;0.10;99.90;;;;;;5010571;28;19909;-79
2022/12/11 08:45:59;;;;;;;;;;;0.10;99.90;;;;;;5010923;28;19909;-79
2022/12/11 08:48:24;;;;;;;;;;;0.20;99.90;;;;;;5013995;28;19945;-79
2022/12/11 08:50:50;;;;;;;;;;;0.20;99.90;;;;;;5013668;28;19909;-78
2022/12/11 08:53:15;;;;;;;;;;;0.20;99.90;;;;;;5012773;28;19931;-79
2022/12/11 08:55:41;;;;;;;;;;;0.20;99.90;;;;;;5014202;28;19917;-78
2022/12/11 08:58:06;;;;;;;;;;;0.20;99.90;;;;;;5012496;28;20209;-78
2022/12/11 09:00:32;;;;;;;;;;;0.20;99.90;;;;;;5013426;28;20108;-79
2022/12/11 09:02:57;;;;;;;;;;;0.20;99.90;;;;;;5013440;28;19913;-79
2022/12/11 09:05:23;;;;;;;;;;;0.30;99.90;;;;;;5013538;28;19917;-77
2022/12/11 09:07:49;;;;;;;;;;;0.30;99.90;;;;;;5013098;28;20031;-77
2022/12/11 09:10:14;;;;;;;;;;;0.30;99.90;;;;;;5013569;28;19917;-76
2022/12/11 09:12:40;;;;;;;;;;;0.40;99.90;;;;;;5013177;28;19910;-78
2022/12/11 09:15:05;;;;;;;;;;;0.40;99.90;;;;;;5013803;28;19910;-78
2022/12/11 09:17:32;;;;;;;;;;;0.40;99.90;;;;;;5013055;28;19962;-83
2022/12/11 09:19:58;;;;;;;;;;;0.40;99.90;;;;;;5013633;28;20047;-78
2022/12/11 09:22:23;;;;;;;;;;;0.50;99.90;;;;;;5013299;28;19909;-79
2022/12/11 09:24:49;;;;;;;;;;;0.50;99.90;;;;;;5013557;28;19917;-79
2022/12/11 09:27:15;;;;;;;;;;;0.50;99.90;;;;;;5013340;28;19910;-79
2022/12/11 09:29:40;;;;;;;;;;;0.50;99.90;;;;;;5013113;28;19909;-78
2022/12/11 09:32:06;;;;;;;;;;;0.50;99.90;;;;;;5013997;28;19914;-77
2022/12/11 09:34:31;;;;;;;;;;;0.50;99.90;;;;;;5013560;28;20011;-81
2022/12/11 09:36:58;;;;;;;;;;;0.60;99.90;;;;;;5013232;28;19951;-78
2022/12/11 09:39:24;;;;;;;;;;;0.60;99.90;;;;;;5015099;28;19910;-78
2022/12/11 09:42:08;;;;;;;;;;;0.70;99.90;;;;;;5012481;28;20028;-78
2022/12/11 09:44:34;;;;;;;;;;;0.70;99.90;;;;;;5012836;28;19976;-80
2022/12/11 09:47:00;;;;;;;;;;;0.70;99.90;;;;;;5013492;28;20245;-78
2022/12/11 09:49:39;;;;;;;;;;;0.70;99.90;;;;;;5014147;28;19996;-78
2022/12/11 09:52:09;;;;;;;;;;;0.70;99.90;;;;;;5013747;28;19910;-79
2022/12/11 09:54:35;;;;;;;;;;;0.70;99.90;;;;;;5013691;28;19909;-80
2022/12/11 09:57:09;;;;;;;;;;;0.70;99.90;;;;;;5012411;28;19918;-78
2022/12/11 09:59:37;;;;;;;;;;;0.70;99.90;;;;;;5013750;28;19956;-79
2022/12/11 10:02:21;;;;;;;;;;;0.80;99.90;;;;;;5012917;28;20226;-78
2022/12/11 10:05:06;;;;;;;;;;;0.80;99.90;;;;;;5013054;28;19929;-78
2022/12/11 10:07:51;;;;;;;;;;;0.90;99.90;;;;;;5013621;28;19910;-78
2022/12/11 10:10:22;;;;;;;;;;;1.00;99.90;;;;;;5013247;28;19999;-79
2022/12/11 10:13:09;;;;;;;;;;;1.00;99.90;;;;;;5013322;28;19920;-79
2022/12/11 10:15:53;;;;;;;;;;;1.00;99.90;;;;;;5015518;28;20291;-82
2022/12/11 10:18:21;;;;;;;;;;;1.10;99.90;;;;;;5014926;28;20048;-78
2022/12/11 10:20:48;;;;;;;;;;;1.10;99.90;;;;;;5013036;28;19913;-79
2022/12/11 10:23:17;;;;;;;;;;;1.10;99.90;;;;;;5013413;28;19925;-78
2022/12/11 10:25:52;;;;;;;;;;;1.10;99.90;;;;;;5013109;28;20283;-78
2022/12/11 10:28:18;;;;;;;;;;;1.10;99.90;;;;;;5011753;28;19913;-78
2022/12/11 10:30:52;;;;;;;;;;;1.10;99.90;;;;;;5012657;28;19960;-78
2022/12/11 10:33:21;;;;;;;;;;;1.10;99.90;;;;;;5012498;28;19935;-78
2022/12/11 10:35:52;;;;;;;;;;;1.00;99.90;;;;;;5012573;28;19976;-79
2022/12/11 10:38:18;;;;;;;;;;;1.00;99.90;;;;;;5012680;28;20371;-79
2022/12/11 10:40:45;;;;;;;;;;;1.00;99.90;;;;;;5011488;28;19945;-78
2022/12/11 10:43:11;;;;;;;;;;;1.00;99.90;;;;;;5012736;28;19909;-78
2022/12/11 10:45:36;;;;;;;;;;;1.00;99.90;;;;;;5012236;28;19916;-82
2022/12/11 10:48:06;;;;;;;;;;;0.90;99.90;;;;;;5012111;28;20351;-79
2022/12/11 10:50:32;;;;;;;;;;;1.00;99.90;;;;;;5014786;28;19972;-79
2022/12/11 10:52:57;;;;;;;;;;;1.00;99.90;;;;;;5012217;28;19924;-78
2022/12/11 10:55:52;;;;;;;;;;;1.00;99.90;;;;;;5012898;28;19997;-78
2022/12/11 10:58:22;;;;;;;;;;;1.00;99.90;;;;;;5002576;28;19965;-78
2022/12/11 11:01:17;;;;;;;;;;;1.10;99.90;;;;;;5011755;28;20403;-78
2022/12/11 11:03:54;;;;;;;;;;;1.10;99.90;;;;;;5003277;28;19996;-78
2022/12/11 11:06:20;;;;;;;;;;;1.10;99.90;;;;;;5011535;28;19910;-78
2022/12/11 11:08:47;;;;;;;;;;;1.10;99.90;;;;;;5011356;28;19910;-78
2022/12/11 11:11:33;;;;;;;;;;;1.10;99.90;;;;;;5011609;28;19949;-78
2022/12/11 11:14:19;;;;;;;;;;;1.10;99.90;;;;;;5011623;28;19971;-77
2022/12/11 11:16:45;;;;;;;;;;;1.20;99.90;;;;;;5011488;28;19917;-77
2022/12/11 11:19:31;;;;;;;;;;;1.10;99.90;;;;;;5012521;28;20369;-77
2022/12/11 11:22:01;;;;;;;;;;;1.10;99.90;;;;;;5011381;28;20083;-77
2022/12/11 11:24:32;;;;;;;;;;;1.20;99.90;;;;;;5011844;28;20323;-77
2022/12/11 11:26:58;;;;;;;;;;;1.20;99.90;;;;;;5011616;28;19975;-78
2022/12/11 11:29:29;;;;;;;;;;;1.20;99.90;;;;;;5011476;28;19910;-77
2022/12/11 11:31:55;;;;;;;;;;;1.20;99.90;;;;;;5010020;28;19935;-77
2022/12/11 11:34:21;;;;;;;;;;;1.20;99.90;;;;;;5011798;28;19965;-77
2022/12/11 11:37:04;;;;;;;;;;;1.10;99.90;;;;;;5010893;28;19917;-78
2022/12/11 11:39:34;;;;;;;;;;;1.10;99.90;;;;;;5011382;28;19916;-78
2022/12/11 11:42:22;;;;;;;;;;;1.20;99.90;;;;;;5012045;28;19912;-78
2022/12/11 11:45:06;;;;;;;;;;;1.10;99.90;;;;;;5011678;28;19909;-78
2022/12/11 11:47:36;;;;;;;;;;;1.20;99.90;;;;;;5011776;28;19916;-78
2022/12/11 11:50:10;;;;;;;;;;;1.20;99.90;;;;;;5011617;28;19910;-77
2022/12/11 11:52:44;;;;;;;;;;;1.20;99.90;;;;;;5011536;28;19953;-78
2022/12/11 11:55:15;;;;;;;;;;;1.30;99.90;;;;;;5011156;28;20359;-78
2022/12/11 11:57:46;;;;;;;;;;;1.30;99.90;;;;;;5011383;28;20008;-83
2022/12/11 12:00:15;;;;;;;;;;;1.30;99.90;;;;;;5011090;28;19920;-76
2022/12/11 12:02:40;;;;;;;;;;;1.40;99.90;;;;;;5011705;28;19910;-81
2022/12/11 12:05:10;;;;;;;;;;;1.40;99.90;;;;;;5011815;28;20462;-77
2022/12/11 12:07:42;;;;;;;;;;;1.40;99.90;;;;;;5011604;28;20321;-77
2022/12/11 12:10:24;;;;;;;;;;;1.40;99.90;;;;;;5012565;28;20239;-77
2022/12/11 12:12:56;;;;;;;;;;;1.50;99.90;;;;;;5012886;28;19916;-77
2022/12/11 12:15:34;;;;;;;;;;;1.50;99.90;;;;;;5013540;28;19910;-76
2022/12/11 12:18:07;;;;;;;;;;;1.50;99.90;;;;;;5012260;28;19990;-77
2022/12/11 12:20:39;;;;;;;;;;;1.50;99.90;;;;;;5016795;28;19913;-77
2022/12/11 12:23:13;;;;;;;;;;;1.60;99.90;;;;;;5015370;28;20016;-76
2022/12/11 12:25:39;;;;;;;;;;;1.60;99.90;;;;;;5014989;28;19909;-76
2022/12/11 12:28:14;;;;;;;;;;;1.60;99.90;;;;;;5014812;28;19917;-76
2022/12/11 12:31:00;;;;;;;;;;;1.60;99.90;;;;;;5015661;28;19968;-76
2022/12/11 12:33:36;;;;;;;;;;;1.60;99.90;;;;;;5014170;28;19922;-76
2022/12/11 12:36:13;;;;;;;;;;;1.60;99.90;;;;;;5014449;28;19922;-77
2022/12/11 12:38:45;;;;;;;;;;;1.60;99.90;;;;;;5014915;28;19948;-79
2022/12/11 12:41:27;;;;;;;;;;;1.60;99.90;;;;;;5015221;28;20333;-79
2022/12/11 12:43:56;;;;;;;;;;;1.60;99.90;;;;;;5014746;28;19909;-79
2022/12/11 12:46:38;;;;;;;;;;;1.50;99.90;;;;;;5014818;28;20016;-80
2022/12/11 12:49:08;;;;;;;;;;;1.50;99.90;;;;;;5014810;28;19952;-80
2022/12/11 12:51:33;;;;;;;;;;;1.50;99.90;;;;;;5014945;28;20036;-80
2022/12/11 12:54:01;;;;;;;;;;;1.50;99.90;;;;;;5014254;28;20355;-83
2022/12/11 12:56:30;;;;;;;;;;;1.60;99.90;;;;;;5014928;28;19909;-83
2022/12/11 12:58:56;;;;;;;;;;;1.60;99.90;;;;;;5012449;28;20382;-80
2022/12/11 13:01:24;;;;;;;;;;;1.60;99.90;;;;;;5014430;28;19917;-80
2022/12/11 13:03:49;;;;;;;;;;;1.60;99.90;;;;;;5015590;28;19910;-81
2022/12/11 13:06:26;;;;;;;;;;;1.60;99.90;;;;;;5015776;28;19917;-80
2022/12/11 13:08:52;;;;;;;;;;;1.70;99.90;;;;;;5015491;28;19914;-81
2022/12/11 13:11:19;;;;;;;;;;;1.80;99.90;;;;;;5015640;28;19913;-80
2022/12/11 13:14:00;;;;;;;;;;;1.80;99.90;;;;;;5014004;28;19915;-87
2022/12/11 13:16:33;;;;;;;;;;;1.60;99.90;;;;;;5015509;28;20330;-79
2022/12/11 13:18:58;;;;;;;;;;;1.60;99.90;;;;;;5015246;28;19910;-79
2022/12/11 13:21:29;;;;;;;;;;;1.60;99.90;;;;;;5015404;28;19916;-79
2022/12/11 13:24:11;;;;;;;;;;;1.60;99.90;;;;;;5014748;28;19909;-79
2022/12/11 13:26:37;;;;;;;;;;;1.60;99.90;;;;;;5013637;28;19913;-78
2022/12/11 13:29:02;;;;;;;;;;;1.60;99.90;;;;;;5014336;28;19909;-78
2022/12/11 13:31:37;;;;;;;;;;;1.60;99.90;;;;;;5014524;28;19924;-78
2022/12/11 13:34:22;;;;;;;;;;;1.50;99.90;;;;;;5014723;28;19916;-78
2022/12/11 13:36:49;;;;;;;;;;;1.50;99.90;;;;;;5014108;28;20212;-86
2022/12/11 13:39:25;;;;;;;;;;;1.40;99.90;;;;;;5014874;28;19971;-78
2022/12/11 13:41:52;;;;;;;;;;;1.40;99.90;;;;;;5014271;28;19913;-79
2022/12/11 13:44:26;;;;;;;;;;;1.40;99.90;;;;;;5014847;28;19967;-78
2022/12/11 13:46:53;;;;;;;;;;;1.30;99.90;;;;;;5014188;28;19920;-78
2022/12/11 13:49:26;;;;;;;;;;;1.30;99.90;;;;;;5014959;28;19917;-77
2022/12/11 13:51:53;;;;;;;;;;;1.30;99.90;;;;;;5014512;28;19914;-78
2022/12/11 13:54:19;;;;;;;;;;;1.30;99.90;;;;;;5014422;28;19995;-77
2022/12/11 13:57:00;;;;;;;;;;;1.30;99.90;;;;;;5013215;28;20004;-80
2022/12/11 13:59:25;;;;;;;;;;;1.30;99.90;;;;;;5014631;28;19910;-78
2022/12/11 14:01:52;;;;;;;;;;;1.40;99.90;;;;;;5013856;28;20035;-79
2022/12/11 14:04:19;;;;;;;;;;;1.30;99.90;;;;;;5017667;28;19921;-78
2022/12/11 14:06:45;;;;;;;;;;;1.30;99.90;;;;;;5016451;28;19925;-78
2022/12/11 14:09:15;;;;;;;;;;;1.40;99.90;;;;;;5015423;28;19988;-78
2022/12/11 14:11:41;;;;;;;;;;;1.30;99.90;;;;;;5014321;28;20016;-77
2022/12/11 14:14:18;;;;;;;;;;;1.30;99.90;;;;;;5014009;28;19910;-78
2022/12/11 14:16:45;;;;;;;;;;;1.30;99.90;;;;;;5014407;28;19945;-79
2022/12/11 14:19:14;;;;;;;;;;;1.30;99.90;;;;;;5014494;28;19913;-79
2022/12/11 14:21:39;;;;;;;;;;;1.40;99.90;;;;;;5014262;28;19910;-81
2022/12/11 14:24:05;;;;;;;;;;;1.30;99.90;;;;;;5014076;28;19917;-80
2022/12/11 14:26:32;;;;;;;;;;;1.40;99.90;;;;;;5014072;28;20424;-80
2022/12/11 14:28:58;;;;;;;;;;;1.40;99.90;;;;;;5014198;28;19959;-80
2022/12/11 14:31:27;;;;;;;;;;;1.40;99.90;;;;;;5014228;28;20262;-80
2022/12/11 14:33:56;;;;;;;;;;;1.40;99.90;;;;;;5012733;28;19909;-82
2022/12/11 14:36:22;;;;;;;;;;;1.40;99.90;;;;;;5014637;28;19922;-80
2022/12/11 14:38:51;;;;;;;;;;;1.40;99.90;;;;;;5013876;28;19951;-80
2022/12/11 14:41:20;;;;;;;;;;;1.40;99.90;;;;;;5013857;28;19937;-80
2022/12/11 14:43:48;;;;;;;;;;;1.40;99.90;;;;;;5014252;28;19917;-79
2022/12/11 14:46:28;;;;;;;;;;;1.40;99.90;;;;;;5013381;28;19916;-79
2022/12/11 14:48:59;;;;;;;;;;;1.40;99.90;;;;;;5013799;28;19964;-83
2022/12/11 14:51:27;;;;;;;;;;;1.30;99.90;;;;;;5014265;28;20374;-79